LVDDR SAAP-SAEZ
Flight info
| Callsign | LVDDR |
|---|---|
| Flight time | 1h 28m |
| Altitude | 17000 |
| Route | W6 SNT SNT7X |
| Aircraft | C340/L-SFG/C |
Departure
| Time | 2026-04-28 03:28 |
|---|---|
| Airport | General Urquiza Airport (SAAP) |
Arrival
| Time | 2026-04-28 04:56 |
|---|---|
| Airport | Ezeiza International Airport - Ministro Pistarini (SAEZ) |
| Time | Latitude | Longitude | Altitude | Speed | Heading |
|---|---|---|---|---|---|
| 2026-04-28 03:20 | -31.78969 | -60.48285 | 247 ft | 0 kts | 278° |
| 2026-04-28 03:25 | -31.78968 | -60.48290 | 247 ft | 3 kts | 292° |
| 2026-04-28 03:25 | -31.78935 | -60.48277 | 247 ft | 8 kts | 51° |
| 2026-04-28 03:25 | -31.78912 | -60.48193 | 247 ft | 14 kts | 65° |
| 2026-04-28 03:26 | -31.78808 | -60.48145 | 247 ft | 18 kts | 11° |
| 2026-04-28 03:26 | -31.78682 | -60.48127 | 247 ft | 18 kts | 6° |
| 2026-04-28 03:26 | -31.78561 | -60.48092 | 247 ft | 18 kts | 40° |
| 2026-04-28 03:26 | -31.78544 | -60.47972 | 247 ft | 17 kts | 102° |
| 2026-04-28 03:27 | -31.78609 | -60.47885 | 247 ft | 18 kts | 186° |
| 2026-04-28 03:27 | -31.78949 | -60.47942 | 247 ft | 85 kts | 188° |
| 2026-04-28 03:27 | -31.79660 | -60.48043 | 298 ft | 114 kts | 184° |
| 2026-04-28 03:27 | -31.80437 | -60.48137 | 619 ft | 111 kts | 189° |
| 2026-04-28 03:28 | -31.81121 | -60.48295 | 1231 ft | 95 kts | 182° |
| 2026-04-28 03:28 | -31.81883 | -60.48342 | 1384 ft | 127 kts | 182° |
| 2026-04-28 03:28 | -31.82758 | -60.48278 | 1856 ft | 123 kts | 160° |
| 2026-04-28 03:28 | -31.83396 | -60.47687 | 2346 ft | 119 kts | 131° |
| 2026-04-28 03:29 | -31.83929 | -60.46969 | 2818 ft | 118 kts | 132° |
| 2026-04-28 03:29 | -31.84532 | -60.46347 | 3274 ft | 117 kts | 144° |
| 2026-04-28 03:29 | -31.85225 | -60.45860 | 3728 ft | 117 kts | 153° |
| 2026-04-28 03:29 | -31.85958 | -60.45456 | 4180 ft | 117 kts | 156° |
| 2026-04-28 03:30 | -31.86706 | -60.45095 | 4629 ft | 118 kts | 158° |
| 2026-04-28 03:30 | -31.87464 | -60.44757 | 5077 ft | 118 kts | 159° |
| 2026-04-28 03:30 | -31.88228 | -60.44427 | 5525 ft | 119 kts | 160° |
| 2026-04-28 03:30 | -31.88994 | -60.44103 | 5971 ft | 119 kts | 160° |
| 2026-04-28 03:31 | -31.89767 | -60.43778 | 6418 ft | 119 kts | 160° |
| 2026-04-28 03:31 | -31.90543 | -60.43454 | 6862 ft | 119 kts | 160° |
| 2026-04-28 03:31 | -31.91322 | -60.43128 | 7306 ft | 120 kts | 160° |
| 2026-04-28 03:31 | -31.92105 | -60.42801 | 7749 ft | 120 kts | 160° |
| 2026-04-28 03:32 | -31.92883 | -60.42476 | 8192 ft | 121 kts | 160° |
| 2026-04-28 03:32 | -31.93683 | -60.42142 | 8646 ft | 122 kts | 160° |
| 2026-04-28 03:32 | -31.94474 | -60.41813 | 9093 ft | 122 kts | 160° |
| 2026-04-28 03:32 | -31.94935 | -60.41620 | 9353 ft | 123 kts | 160° |
| 2026-04-28 03:33 | -31.95723 | -60.41291 | 9794 ft | 123 kts | 160° |
| 2026-04-28 03:33 | -31.96522 | -60.40957 | 10237 ft | 123 kts | 160° |
| 2026-04-28 03:33 | -31.97328 | -60.40621 | 10682 ft | 124 kts | 160° |
| 2026-04-28 03:33 | -31.98140 | -60.40282 | 11127 ft | 124 kts | 160° |
| 2026-04-28 03:34 | -31.98959 | -60.39939 | 11457 ft | 134 kts | 160° |
| 2026-04-28 03:34 | -31.99878 | -60.39558 | 11755 ft | 144 kts | 160° |
| 2026-04-28 03:34 | -32.00826 | -60.39162 | 12095 ft | 148 kts | 160° |
| 2026-04-28 03:34 | -32.01808 | -60.38751 | 12390 ft | 155 kts | 160° |
| 2026-04-28 03:35 | -32.02857 | -60.38313 | 12563 ft | 167 kts | 160° |
| 2026-04-28 03:35 | -32.03998 | -60.37838 | 12702 ft | 177 kts | 160° |
| 2026-04-28 03:35 | -32.05150 | -60.37356 | 12863 ft | 182 kts | 160° |
| 2026-04-28 03:35 | -32.06340 | -60.36858 | 13038 ft | 185 kts | 160° |
| 2026-04-28 03:36 | -32.07579 | -60.36338 | 13226 ft | 187 kts | 160° |
| 2026-04-28 03:36 | -32.08804 | -60.35825 | 13413 ft | 188 kts | 160° |
| 2026-04-28 03:36 | -32.10045 | -60.35305 | 13605 ft | 189 kts | 160° |
| 2026-04-28 03:36 | -32.11274 | -60.34790 | 13794 ft | 189 kts | 160° |
| 2026-04-28 03:37 | -32.12512 | -60.34271 | 13985 ft | 190 kts | 160° |
| 2026-04-28 03:37 | -32.13764 | -60.33746 | 14177 ft | 190 kts | 160° |
| 2026-04-28 03:37 | -32.15004 | -60.33226 | 14366 ft | 190 kts | 160° |
| 2026-04-28 03:37 | -32.16245 | -60.32706 | 14556 ft | 191 kts | 160° |
| 2026-04-28 03:38 | -32.17505 | -60.32177 | 14747 ft | 191 kts | 160° |
| 2026-04-28 03:38 | -32.18744 | -60.31657 | 14935 ft | 191 kts | 160° |
| 2026-04-28 03:38 | -32.20010 | -60.31126 | 15127 ft | 192 kts | 160° |
| 2026-04-28 03:38 | -32.21269 | -60.30597 | 15316 ft | 192 kts | 160° |
| 2026-04-28 03:39 | -32.22516 | -60.30074 | 15504 ft | 193 kts | 160° |
| 2026-04-28 03:39 | -32.23771 | -60.29546 | 15691 ft | 193 kts | 160° |
| 2026-04-28 03:39 | -32.25033 | -60.29016 | 15877 ft | 193 kts | 160° |
| 2026-04-28 03:39 | -32.26294 | -60.28486 | 16062 ft | 193 kts | 160° |
| 2026-04-28 03:40 | -32.27565 | -60.27951 | 16246 ft | 193 kts | 160° |
| 2026-04-28 03:40 | -32.28823 | -60.27422 | 16426 ft | 193 kts | 160° |
| 2026-04-28 03:40 | -32.30082 | -60.26892 | 16605 ft | 193 kts | 160° |
| 2026-04-28 03:40 | -32.31334 | -60.26365 | 16781 ft | 193 kts | 160° |
| 2026-04-28 03:41 | -32.32598 | -60.25833 | 16958 ft | 193 kts | 160° |
| 2026-04-28 03:41 | -32.33878 | -60.25293 | 17001 ft | 200 kts | 160° |
| 2026-04-28 03:41 | -32.35199 | -60.24739 | 17004 ft | 206 kts | 160° |
| 2026-04-28 03:41 | -32.36559 | -60.24167 | 17003 ft | 210 kts | 160° |
| 2026-04-28 03:42 | -32.37952 | -60.23581 | 17001 ft | 212 kts | 160° |
| 2026-04-28 03:42 | -32.39354 | -60.22989 | 17000 ft | 214 kts | 160° |
| 2026-04-28 03:42 | -32.40463 | -60.22521 | 17000 ft | 214 kts | 160° |
| 2026-04-28 03:42 | -32.42094 | -60.21832 | 16999 ft | 215 kts | 160° |
| 2026-04-28 03:43 | -32.43500 | -60.21239 | 16999 ft | 216 kts | 160° |
| 2026-04-28 03:43 | -32.44879 | -60.20656 | 16999 ft | 216 kts | 160° |
| 2026-04-28 03:44 | -32.49313 | -60.18782 | 16999 ft | 216 kts | 160° |
| 2026-04-28 03:44 | -32.50629 | -60.18226 | 16999 ft | 216 kts | 160° |
| 2026-04-28 03:44 | -32.51751 | -60.17751 | 16999 ft | 216 kts | 160° |
| 2026-04-28 03:45 | -32.54666 | -60.16518 | 16999 ft | 216 kts | 160° |
| 2026-04-28 03:45 | -32.56101 | -60.15911 | 16999 ft | 216 kts | 160° |
| 2026-04-28 03:45 | -32.57499 | -60.15318 | 16999 ft | 216 kts | 160° |
| 2026-04-28 03:45 | -32.58928 | -60.14713 | 16999 ft | 216 kts | 160° |
| 2026-04-28 03:46 | -32.60338 | -60.14115 | 16999 ft | 216 kts | 160° |
| 2026-04-28 03:46 | -32.61764 | -60.13511 | 16999 ft | 216 kts | 160° |
| 2026-04-28 03:46 | -32.62934 | -60.13015 | 16999 ft | 216 kts | 160° |
| 2026-04-28 03:46 | -32.64506 | -60.12348 | 16999 ft | 216 kts | 160° |
| 2026-04-28 03:47 | -32.65873 | -60.11768 | 16999 ft | 216 kts | 160° |
| 2026-04-28 03:47 | -32.67313 | -60.11157 | 16999 ft | 216 kts | 160° |
| 2026-04-28 03:47 | -32.68731 | -60.10555 | 16999 ft | 216 kts | 160° |
| 2026-04-28 03:47 | -32.70137 | -60.09958 | 16999 ft | 216 kts | 160° |
| 2026-04-28 03:48 | -32.71568 | -60.09349 | 16999 ft | 216 kts | 160° |
| 2026-04-28 03:48 | -32.72920 | -60.08775 | 16999 ft | 216 kts | 160° |
| 2026-04-28 03:48 | -32.74328 | -60.08176 | 16999 ft | 216 kts | 160° |
| 2026-04-28 03:48 | -32.75754 | -60.07570 | 16999 ft | 216 kts | 160° |
| 2026-04-28 03:49 | -32.77163 | -60.06970 | 16999 ft | 216 kts | 160° |
| 2026-04-28 03:49 | -32.78588 | -60.06364 | 16999 ft | 216 kts | 160° |
| 2026-04-28 03:49 | -32.80010 | -60.05759 | 16999 ft | 216 kts | 160° |
| 2026-04-28 03:49 | -32.81434 | -60.05152 | 16999 ft | 216 kts | 160° |
| 2026-04-28 03:50 | -32.82850 | -60.04549 | 16999 ft | 216 kts | 160° |
| 2026-04-28 03:50 | -32.84270 | -60.03944 | 16999 ft | 216 kts | 160° |
| 2026-04-28 03:50 | -32.85681 | -60.03342 | 16999 ft | 216 kts | 160° |
| 2026-04-28 03:50 | -32.87083 | -60.02744 | 16999 ft | 216 kts | 160° |
| 2026-04-28 03:51 | -32.88517 | -60.02132 | 16999 ft | 216 kts | 160° |
| 2026-04-28 03:51 | -32.89919 | -60.01534 | 16999 ft | 216 kts | 160° |
| 2026-04-28 03:51 | -32.91342 | -60.00926 | 16999 ft | 216 kts | 160° |
| 2026-04-28 03:51 | -32.92765 | -60.00319 | 16999 ft | 216 kts | 160° |
| 2026-04-28 03:52 | -32.94185 | -59.99712 | 16999 ft | 216 kts | 160° |
| 2026-04-28 03:52 | -32.95601 | -59.99107 | 16999 ft | 216 kts | 160° |
| 2026-04-28 03:52 | -32.97015 | -59.98503 | 16999 ft | 216 kts | 160° |
| 2026-04-28 03:52 | -32.98414 | -59.97905 | 16999 ft | 216 kts | 160° |
| 2026-04-28 03:53 | -32.99678 | -59.97364 | 16999 ft | 216 kts | 160° |
| 2026-04-28 03:53 | -33.01231 | -59.96699 | 16999 ft | 216 kts | 160° |
| 2026-04-28 03:53 | -33.02582 | -59.96121 | 16999 ft | 216 kts | 160° |
| 2026-04-28 03:53 | -33.03398 | -59.95772 | 16999 ft | 216 kts | 160° |
| 2026-04-28 03:54 | -33.05227 | -59.94988 | 16999 ft | 216 kts | 160° |
| 2026-04-28 03:54 | -33.06648 | -59.94379 | 16999 ft | 216 kts | 160° |
| 2026-04-28 03:54 | -33.08058 | -59.93775 | 16999 ft | 216 kts | 160° |
| 2026-04-28 03:54 | -33.09479 | -59.93166 | 16999 ft | 216 kts | 160° |
| 2026-04-28 03:55 | -33.10850 | -59.92577 | 16999 ft | 216 kts | 160° |
| 2026-04-28 03:55 | -33.12220 | -59.91989 | 16999 ft | 216 kts | 160° |
| 2026-04-28 03:55 | -33.13587 | -59.91403 | 16999 ft | 216 kts | 160° |
| 2026-04-28 03:55 | -33.15005 | -59.90794 | 16999 ft | 216 kts | 160° |
| 2026-04-28 03:56 | -33.16410 | -59.90190 | 16999 ft | 216 kts | 160° |
| 2026-04-28 03:56 | -33.17825 | -59.89583 | 16999 ft | 216 kts | 160° |
| 2026-04-28 03:56 | -33.19205 | -59.88990 | 16999 ft | 216 kts | 160° |
| 2026-04-28 03:56 | -33.20630 | -59.88377 | 16999 ft | 216 kts | 160° |
| 2026-04-28 03:57 | -33.21991 | -59.87792 | 16999 ft | 216 kts | 160° |
| 2026-04-28 03:57 | -33.23364 | -59.87201 | 16999 ft | 216 kts | 160° |
| 2026-04-28 03:57 | -33.24819 | -59.86575 | 16999 ft | 216 kts | 160° |
| 2026-04-28 03:57 | -33.26221 | -59.85971 | 16999 ft | 216 kts | 160° |
| 2026-04-28 03:58 | -33.27599 | -59.85378 | 16999 ft | 216 kts | 160° |
| 2026-04-28 03:58 | -33.28988 | -59.84779 | 16999 ft | 216 kts | 160° |
| 2026-04-28 03:58 | -33.30427 | -59.84159 | 16999 ft | 216 kts | 160° |
| 2026-04-28 03:58 | -33.31641 | -59.83635 | 16999 ft | 216 kts | 160° |
| 2026-04-28 03:59 | -33.33195 | -59.82966 | 16999 ft | 216 kts | 160° |
| 2026-04-28 03:59 | -33.34573 | -59.82371 | 16999 ft | 216 kts | 160° |
| 2026-04-28 03:59 | -33.36001 | -59.81755 | 16999 ft | 216 kts | 160° |
| 2026-04-28 03:59 | -33.37401 | -59.81150 | 16999 ft | 216 kts | 160° |
| 2026-04-28 04:00 | -33.38819 | -59.80538 | 16999 ft | 216 kts | 160° |
| 2026-04-28 04:00 | -33.40239 | -59.79925 | 16999 ft | 216 kts | 160° |
| 2026-04-28 04:00 | -33.41653 | -59.79314 | 16999 ft | 216 kts | 160° |
| 2026-04-28 04:00 | -33.43058 | -59.78706 | 16999 ft | 216 kts | 160° |
| 2026-04-28 04:01 | -33.44470 | -59.78096 | 16999 ft | 216 kts | 160° |
| 2026-04-28 04:01 | -33.45887 | -59.77483 | 16999 ft | 216 kts | 160° |
| 2026-04-28 04:01 | -33.47290 | -59.76875 | 16999 ft | 216 kts | 160° |
| 2026-04-28 04:01 | -33.48679 | -59.76274 | 16999 ft | 216 kts | 160° |
| 2026-04-28 04:02 | -33.50098 | -59.75660 | 16999 ft | 216 kts | 160° |
| 2026-04-28 04:02 | -33.51509 | -59.75048 | 16999 ft | 216 kts | 160° |
| 2026-04-28 04:02 | -33.52906 | -59.74443 | 16999 ft | 216 kts | 160° |
| 2026-04-28 04:02 | -33.54297 | -59.73840 | 16999 ft | 216 kts | 160° |
| 2026-04-28 04:03 | -33.55701 | -59.73231 | 16999 ft | 216 kts | 160° |
| 2026-04-28 04:03 | -33.57131 | -59.72611 | 16999 ft | 216 kts | 160° |
| 2026-04-28 04:03 | -33.58548 | -59.71996 | 16999 ft | 216 kts | 160° |
| 2026-04-28 04:03 | -33.59958 | -59.71384 | 16999 ft | 216 kts | 160° |
| 2026-04-28 04:04 | -33.61365 | -59.70773 | 16999 ft | 216 kts | 160° |
| 2026-04-28 04:04 | -33.62749 | -59.70172 | 16999 ft | 216 kts | 160° |
| 2026-04-28 04:04 | -33.64189 | -59.69546 | 16999 ft | 216 kts | 160° |
| 2026-04-28 04:04 | -33.65583 | -59.68940 | 16999 ft | 216 kts | 160° |
| 2026-04-28 04:05 | -33.66987 | -59.68330 | 16999 ft | 216 kts | 160° |
| 2026-04-28 04:05 | -33.68390 | -59.67719 | 16999 ft | 216 kts | 160° |
| 2026-04-28 04:05 | -33.69806 | -59.67102 | 16999 ft | 216 kts | 160° |
| 2026-04-28 04:05 | -33.71215 | -59.66489 | 16999 ft | 216 kts | 160° |
| 2026-04-28 04:06 | -33.72610 | -59.65882 | 16999 ft | 216 kts | 160° |
| 2026-04-28 04:06 | -33.74036 | -59.65261 | 16999 ft | 216 kts | 160° |
| 2026-04-28 04:06 | -33.75458 | -59.64641 | 16999 ft | 216 kts | 160° |
| 2026-04-28 04:06 | -33.76627 | -59.64131 | 16999 ft | 216 kts | 160° |
| 2026-04-28 04:07 | -33.77636 | -59.63692 | 16999 ft | 216 kts | 160° |
| 2026-04-28 04:07 | -33.78800 | -59.63184 | 16999 ft | 216 kts | 160° |
| 2026-04-28 04:07 | -33.80381 | -59.62494 | 16999 ft | 216 kts | 160° |
| 2026-04-28 04:07 | -33.81961 | -59.61804 | 16999 ft | 216 kts | 160° |
| 2026-04-28 04:08 | -33.83556 | -59.61108 | 16999 ft | 216 kts | 160° |
| 2026-04-28 04:08 | -33.84996 | -59.60479 | 16999 ft | 216 kts | 160° |
| 2026-04-28 04:08 | -33.86433 | -59.59851 | 16922 ft | 220 kts | 160° |
| 2026-04-28 04:08 | -33.87876 | -59.59223 | 16832 ft | 219 kts | 160° |
| 2026-04-28 04:09 | -33.89312 | -59.58594 | 16741 ft | 218 kts | 160° |
| 2026-04-28 04:09 | -33.90667 | -59.58001 | 16654 ft | 218 kts | 160° |
| 2026-04-28 04:09 | -33.92086 | -59.57379 | 16564 ft | 217 kts | 160° |
| 2026-04-28 04:09 | -33.93460 | -59.56777 | 16477 ft | 217 kts | 160° |
| 2026-04-28 04:10 | -33.94851 | -59.56168 | 16389 ft | 217 kts | 160° |
| 2026-04-28 04:10 | -33.96237 | -59.55561 | 16302 ft | 217 kts | 160° |
| 2026-04-28 04:10 | -33.97610 | -59.54959 | 16217 ft | 217 kts | 160° |
| 2026-04-28 04:10 | -33.99012 | -59.54345 | 16130 ft | 217 kts | 160° |
| 2026-04-28 04:11 | -34.00377 | -59.53746 | 16046 ft | 217 kts | 160° |
| 2026-04-28 04:11 | -34.01785 | -59.53128 | 15960 ft | 217 kts | 160° |
| 2026-04-28 04:11 | -34.03202 | -59.52507 | 15874 ft | 217 kts | 160° |
| 2026-04-28 04:11 | -34.04609 | -59.51889 | 15789 ft | 216 kts | 160° |
| 2026-04-28 04:12 | -34.06025 | -59.51267 | 15704 ft | 216 kts | 160° |
| 2026-04-28 04:12 | -34.07447 | -59.50643 | 15620 ft | 216 kts | 160° |
| 2026-04-28 04:12 | -34.08851 | -59.50026 | 15538 ft | 216 kts | 160° |
| 2026-04-28 04:12 | -34.10256 | -59.49408 | 15456 ft | 216 kts | 160° |
| 2026-04-28 04:13 | -34.11679 | -59.48782 | 15374 ft | 216 kts | 160° |
| 2026-04-28 04:13 | -34.13089 | -59.48163 | 15294 ft | 216 kts | 160° |
| 2026-04-28 04:13 | -34.14486 | -59.47550 | 15148 ft | 213 kts | 160° |
| 2026-04-28 04:13 | -34.15880 | -59.46936 | 14965 ft | 212 kts | 160° |
| 2026-04-28 04:14 | -34.17265 | -59.46325 | 14783 ft | 212 kts | 160° |
| 2026-04-28 04:14 | -34.18633 | -59.45722 | 14603 ft | 211 kts | 160° |
| 2026-04-28 04:14 | -34.20014 | -59.45113 | 14422 ft | 211 kts | 160° |
| 2026-04-28 04:14 | -34.21269 | -59.44385 | 14211 ft | 212 kts | 139° |
| 2026-04-28 04:15 | -34.22029 | -59.42851 | 14030 ft | 211 kts | 111° |
| 2026-04-28 04:15 | -34.22492 | -59.41132 | 13850 ft | 210 kts | 106° |
| 2026-04-28 04:15 | -34.23159 | -59.37706 | 13501 ft | 210 kts | 102° |
| 2026-04-28 04:16 | -34.23447 | -59.35976 | 13327 ft | 209 kts | 101° |
| 2026-04-28 04:16 | -34.23718 | -59.34285 | 13157 ft | 209 kts | 101° |
| 2026-04-28 04:16 | -34.23988 | -59.32556 | 12984 ft | 208 kts | 100° |
| 2026-04-28 04:16 | -34.24253 | -59.30839 | 12813 ft | 208 kts | 100° |
| 2026-04-28 04:17 | -34.24516 | -59.29118 | 12642 ft | 207 kts | 100° |
| 2026-04-28 04:17 | -34.24766 | -59.27481 | 12479 ft | 207 kts | 100° |
| 2026-04-28 04:17 | -34.25031 | -59.25738 | 12305 ft | 206 kts | 100° |
| 2026-04-28 04:17 | -34.25289 | -59.24043 | 12137 ft | 206 kts | 100° |
| 2026-04-28 04:18 | -34.25549 | -59.22331 | 11968 ft | 206 kts | 100° |
| 2026-04-28 04:18 | -34.25805 | -59.20635 | 11800 ft | 205 kts | 100° |
| 2026-04-28 04:18 | -34.26049 | -59.19029 | 11641 ft | 205 kts | 100° |
| 2026-04-28 04:18 | -34.26313 | -59.17278 | 11468 ft | 204 kts | 100° |
| 2026-04-28 04:19 | -34.26569 | -59.15586 | 11301 ft | 204 kts | 100° |
| 2026-04-28 04:19 | -34.26821 | -59.13914 | 11137 ft | 203 kts | 100° |
| 2026-04-28 04:19 | -34.27077 | -59.12219 | 10970 ft | 203 kts | 100° |
| 2026-04-28 04:19 | -34.27316 | -59.10635 | 10815 ft | 202 kts | 100° |
| 2026-04-28 04:20 | -34.27572 | -59.08931 | 10647 ft | 202 kts | 100° |
| 2026-04-28 04:20 | -34.27787 | -59.07496 | 10507 ft | 202 kts | 100° |
| 2026-04-28 04:20 | -34.27882 | -59.06871 | 10446 ft | 202 kts | 100° |
| 2026-04-28 04:20 | -34.28204 | -59.04720 | 10235 ft | 201 kts | 100° |
| 2026-04-28 04:21 | -34.28584 | -59.02186 | 9988 ft | 200 kts | 100° |
| 2026-04-28 04:21 | -34.28832 | -59.00530 | 9827 ft | 200 kts | 100° |
| 2026-04-28 04:21 | -34.29077 | -58.98896 | 9668 ft | 200 kts | 100° |
| 2026-04-28 04:21 | -34.29324 | -58.97243 | 9508 ft | 199 kts | 100° |
| 2026-04-28 04:22 | -34.29674 | -58.95617 | 9311 ft | 201 kts | 120° |
| 2026-04-28 04:22 | -34.30718 | -58.94531 | 9154 ft | 199 kts | 149° |
| 2026-04-28 04:22 | -34.31900 | -58.93665 | 8994 ft | 198 kts | 148° |
| 2026-04-28 04:22 | -34.33047 | -58.92809 | 8998 ft | 191 kts | 148° |
| 2026-04-28 04:23 | -34.34162 | -58.91957 | 8999 ft | 186 kts | 147° |
| 2026-04-28 04:23 | -34.35244 | -58.91119 | 9000 ft | 184 kts | 147° |
| 2026-04-28 04:23 | -34.36310 | -58.90286 | 9001 ft | 182 kts | 147° |
| 2026-04-28 04:23 | -34.37375 | -58.89449 | 9002 ft | 181 kts | 147° |
| 2026-04-28 04:24 | -34.38418 | -58.88627 | 9002 ft | 181 kts | 147° |
| 2026-04-28 04:24 | -34.39464 | -58.87799 | 9002 ft | 181 kts | 147° |
| 2026-04-28 04:24 | -34.40510 | -58.86971 | 9003 ft | 180 kts | 147° |
| 2026-04-28 04:24 | -34.41457 | -58.86221 | 9003 ft | 180 kts | 147° |
| 2026-04-28 04:25 | -34.42523 | -58.85376 | 9003 ft | 180 kts | 147° |
| 2026-04-28 04:25 | -34.43588 | -58.84531 | 9003 ft | 180 kts | 147° |
| 2026-04-28 04:25 | -34.44614 | -58.83716 | 9003 ft | 180 kts | 147° |
| 2026-04-28 04:25 | -34.45558 | -58.82966 | 9003 ft | 180 kts | 147° |
| 2026-04-28 04:26 | -34.46639 | -58.82108 | 9003 ft | 180 kts | 147° |
| 2026-04-28 04:26 | -34.47515 | -58.81411 | 9003 ft | 180 kts | 147° |
| 2026-04-28 04:26 | -34.48539 | -58.80597 | 9003 ft | 180 kts | 147° |
| 2026-04-28 04:26 | -34.49596 | -58.79756 | 9003 ft | 180 kts | 147° |
| 2026-04-28 04:27 | -34.50633 | -58.78931 | 9003 ft | 180 kts | 147° |
| 2026-04-28 04:27 | -34.51694 | -58.78086 | 9003 ft | 180 kts | 147° |
| 2026-04-28 04:27 | -34.52741 | -58.77253 | 9003 ft | 180 kts | 147° |
| 2026-04-28 04:27 | -34.53783 | -58.76424 | 9003 ft | 180 kts | 147° |
| 2026-04-28 04:28 | -34.54847 | -58.75577 | 9003 ft | 180 kts | 147° |
| 2026-04-28 04:28 | -34.55891 | -58.74744 | 9003 ft | 180 kts | 147° |
| 2026-04-28 04:28 | -34.56937 | -58.73911 | 9003 ft | 180 kts | 147° |
| 2026-04-28 04:28 | -34.57986 | -58.73074 | 9003 ft | 180 kts | 147° |
| 2026-04-28 04:29 | -34.59041 | -58.72233 | 9003 ft | 180 kts | 147° |
| 2026-04-28 04:29 | -34.60091 | -58.71397 | 8934 ft | 179 kts | 147° |
| 2026-04-28 04:29 | -34.61126 | -58.70572 | 8806 ft | 177 kts | 147° |
| 2026-04-28 04:29 | -34.62139 | -58.69761 | 8678 ft | 176 kts | 147° |
| 2026-04-28 04:30 | -34.63160 | -58.68946 | 8547 ft | 175 kts | 147° |
| 2026-04-28 04:30 | -34.64168 | -58.68140 | 8417 ft | 174 kts | 147° |
| 2026-04-28 04:30 | -34.65106 | -58.67391 | 8295 ft | 174 kts | 147° |
| 2026-04-28 04:30 | -34.66170 | -58.66540 | 8158 ft | 174 kts | 147° |
| 2026-04-28 04:31 | -34.67182 | -58.65731 | 8027 ft | 173 kts | 147° |
| 2026-04-28 04:31 | -34.68196 | -58.64921 | 7896 ft | 173 kts | 147° |
| 2026-04-28 04:31 | -34.69174 | -58.64138 | 7770 ft | 173 kts | 147° |
| 2026-04-28 04:31 | -34.70189 | -58.63326 | 7640 ft | 173 kts | 147° |
| 2026-04-28 04:32 | -34.71187 | -58.62528 | 7512 ft | 172 kts | 147° |
| 2026-04-28 04:32 | -34.72175 | -58.61736 | 7385 ft | 172 kts | 147° |
| 2026-04-28 04:32 | -34.73167 | -58.60943 | 7259 ft | 172 kts | 147° |
| 2026-04-28 04:32 | -34.74170 | -58.60138 | 7131 ft | 172 kts | 147° |
| 2026-04-28 04:33 | -34.75162 | -58.59343 | 7005 ft | 171 kts | 147° |
| 2026-04-28 04:33 | -34.76164 | -58.58541 | 6878 ft | 171 kts | 147° |
| 2026-04-28 04:33 | -34.77118 | -58.57776 | 6758 ft | 171 kts | 147° |
| 2026-04-28 04:33 | -34.78127 | -58.56966 | 6631 ft | 171 kts | 147° |
| 2026-04-28 04:34 | -34.79122 | -58.56168 | 6505 ft | 170 kts | 147° |
| 2026-04-28 04:34 | -34.80120 | -58.55367 | 6380 ft | 170 kts | 147° |
| 2026-04-28 04:34 | -34.81110 | -58.54572 | 6256 ft | 170 kts | 147° |
| 2026-04-28 04:34 | -34.82102 | -58.53776 | 6132 ft | 170 kts | 147° |
| 2026-04-28 04:35 | -34.83089 | -58.52983 | 6009 ft | 169 kts | 147° |
| 2026-04-28 04:35 | -34.84070 | -58.52194 | 5886 ft | 169 kts | 147° |
| 2026-04-28 04:35 | -34.85062 | -58.51398 | 5763 ft | 169 kts | 147° |
| 2026-04-28 04:35 | -34.86019 | -58.50628 | 5644 ft | 169 kts | 147° |
| 2026-04-28 04:36 | -34.86808 | -58.49993 | 5547 ft | 169 kts | 147° |
| 2026-04-28 04:36 | -34.87944 | -58.49078 | 5406 ft | 168 kts | 147° |
| 2026-04-28 04:36 | -34.88912 | -58.48298 | 5287 ft | 168 kts | 147° |
| 2026-04-28 04:36 | -34.89867 | -58.47527 | 5169 ft | 168 kts | 147° |
| 2026-04-28 04:37 | -34.90849 | -58.46735 | 5049 ft | 168 kts | 147° |
| 2026-04-28 04:37 | -34.91813 | -58.45956 | 4931 ft | 168 kts | 147° |
| 2026-04-28 04:37 | -34.92791 | -58.45165 | 4811 ft | 167 kts | 147° |
| 2026-04-28 04:37 | -34.93760 | -58.44381 | 4693 ft | 167 kts | 147° |
| 2026-04-28 04:38 | -34.94736 | -58.43590 | 4573 ft | 167 kts | 147° |
| 2026-04-28 04:38 | -34.95691 | -58.42816 | 4457 ft | 166 kts | 147° |
| 2026-04-28 04:38 | -34.96659 | -58.42031 | 4339 ft | 166 kts | 147° |
| 2026-04-28 04:38 | -34.97617 | -58.41253 | 4222 ft | 166 kts | 147° |
| 2026-04-28 04:39 | -34.98586 | -58.40466 | 4103 ft | 166 kts | 147° |
| 2026-04-28 04:39 | -34.99535 | -58.39694 | 3987 ft | 165 kts | 147° |
| 2026-04-28 04:39 | -35.00480 | -58.38924 | 3870 ft | 165 kts | 147° |
| 2026-04-28 04:39 | -35.01452 | -58.38133 | 3685 ft | 168 kts | 147° |
| 2026-04-28 04:40 | -35.02423 | -58.37345 | 3508 ft | 170 kts | 147° |
| 2026-04-28 04:40 | -35.03413 | -58.36545 | 3331 ft | 170 kts | 147° |
| 2026-04-28 04:40 | -35.04395 | -58.35753 | 3157 ft | 170 kts | 147° |
| 2026-04-28 04:40 | -35.05383 | -58.34955 | 2983 ft | 170 kts | 146° |
| 2026-04-28 04:41 | -35.06416 | -58.34384 | 2969 ft | 161 kts | 175° |
| 2026-04-28 04:41 | -35.07492 | -58.34601 | 2994 ft | 154 kts | 194° |
| 2026-04-28 04:41 | -35.08507 | -58.34919 | 2994 ft | 151 kts | 194° |
| 2026-04-28 04:41 | -35.09526 | -58.35247 | 2995 ft | 149 kts | 194° |
| 2026-04-28 04:42 | -35.10519 | -58.35570 | 2996 ft | 148 kts | 194° |
| 2026-04-28 04:42 | -35.11516 | -58.35895 | 2996 ft | 147 kts | 194° |
| 2026-04-28 04:42 | -35.12502 | -58.36217 | 2997 ft | 146 kts | 194° |
| 2026-04-28 04:42 | -35.13487 | -58.36538 | 2997 ft | 146 kts | 194° |
| 2026-04-28 04:43 | -35.14453 | -58.36853 | 2997 ft | 146 kts | 194° |
| 2026-04-28 04:43 | -35.15443 | -58.37177 | 2997 ft | 146 kts | 194° |
| 2026-04-28 04:43 | -35.16419 | -58.37495 | 2997 ft | 146 kts | 194° |
| 2026-04-28 04:43 | -35.17401 | -58.37816 | 2997 ft | 146 kts | 194° |
| 2026-04-28 04:44 | -35.18376 | -58.38144 | 2995 ft | 146 kts | 199° |
| 2026-04-28 04:44 | -35.19095 | -58.38961 | 2996 ft | 145 kts | 246° |
| 2026-04-28 04:44 | -35.19114 | -58.40163 | 2998 ft | 144 kts | 291° |
| 2026-04-28 04:44 | -35.18431 | -58.41034 | 2998 ft | 144 kts | 336° |
| 2026-04-28 04:45 | -35.17453 | -58.41166 | 3006 ft | 144 kts | 2° |
| 2026-04-28 04:45 | -35.16439 | -58.41085 | 2999 ft | 145 kts | 4° |
| 2026-04-28 04:45 | -35.15429 | -58.41006 | 2997 ft | 145 kts | 0° |
| 2026-04-28 04:45 | -35.14441 | -58.41154 | 2998 ft | 145 kts | 346° |
| 2026-04-28 04:46 | -35.13472 | -58.41535 | 2997 ft | 145 kts | 339° |
| 2026-04-28 04:46 | -35.12545 | -58.42005 | 2997 ft | 145 kts | 336° |
| 2026-04-28 04:46 | -35.11623 | -58.42517 | 2997 ft | 145 kts | 335° |
| 2026-04-28 04:46 | -35.10704 | -58.43045 | 2997 ft | 146 kts | 334° |
| 2026-04-28 04:47 | -35.09788 | -58.43577 | 2997 ft | 146 kts | 334° |
| 2026-04-28 04:47 | -35.08874 | -58.44111 | 2997 ft | 146 kts | 334° |
| 2026-04-28 04:47 | -35.07903 | -58.44407 | 3003 ft | 145 kts | 358° |
| 2026-04-28 04:47 | -35.06898 | -58.44506 | 2999 ft | 145 kts | 351° |
| 2026-04-28 04:48 | -35.05906 | -58.44738 | 2997 ft | 145 kts | 347° |
| 2026-04-28 04:48 | -35.04912 | -58.45037 | 2997 ft | 146 kts | 345° |
| 2026-04-28 04:48 | -35.03961 | -58.45349 | 2994 ft | 142 kts | 344° |
| 2026-04-28 04:48 | -35.03013 | -58.45674 | 2995 ft | 140 kts | 344° |
| 2026-04-28 04:49 | -35.02081 | -58.45997 | 2996 ft | 139 kts | 344° |
| 2026-04-28 04:49 | -35.01160 | -58.46318 | 2996 ft | 138 kts | 343° |
| 2026-04-28 04:49 | -35.00246 | -58.46636 | 2988 ft | 130 kts | 343° |
| 2026-04-28 04:49 | -34.99436 | -58.46921 | 2981 ft | 112 kts | 343° |
| 2026-04-28 04:50 | -34.98737 | -58.47171 | 3029 ft | 99 kts | 343° |
| 2026-04-28 04:50 | -34.98073 | -58.47425 | 3060 ft | 101 kts | 342° |
| 2026-04-28 04:50 | -34.97394 | -58.47699 | 3112 ft | 103 kts | 341° |
| 2026-04-28 04:50 | -34.96700 | -58.47985 | 3183 ft | 106 kts | 341° |
| 2026-04-28 04:51 | -34.96006 | -58.48277 | 3265 ft | 107 kts | 340° |
| 2026-04-28 04:51 | -34.95300 | -58.48580 | 3351 ft | 107 kts | 340° |
| 2026-04-28 04:51 | -34.94596 | -58.48888 | 3438 ft | 107 kts | 340° |
| 2026-04-28 04:51 | -34.93898 | -58.49197 | 3523 ft | 105 kts | 340° |
| 2026-04-28 04:52 | -34.93246 | -58.49396 | 3506 ft | 88 kts | 355° |
| 2026-04-28 04:52 | -34.92622 | -58.49464 | 3376 ft | 97 kts | 352° |
| 2026-04-28 04:52 | -34.91907 | -58.49612 | 3140 ft | 112 kts | 348° |
| 2026-04-28 04:52 | -34.91124 | -58.49836 | 2926 ft | 119 kts | 345° |
| 2026-04-28 04:53 | -34.90293 | -58.50108 | 2591 ft | 123 kts | 344° |
| 2026-04-28 04:53 | -34.89499 | -58.50375 | 2225 ft | 116 kts | 344° |
| 2026-04-28 04:53 | -34.88739 | -58.50638 | 1848 ft | 111 kts | 343° |
| 2026-04-28 04:53 | -34.88019 | -58.50893 | 1461 ft | 107 kts | 343° |
| 2026-04-28 04:54 | -34.87313 | -58.51141 | 1065 ft | 105 kts | 343° |
| 2026-04-28 04:54 | -34.86632 | -58.51378 | 776 ft | 95 kts | 343° |
| 2026-04-28 04:54 | -34.86028 | -58.51594 | 679 ft | 91 kts | 343° |
| 2026-04-28 04:54 | -34.85359 | -58.51825 | 556 ft | 106 kts | 344° |
| 2026-04-28 04:55 | -34.84647 | -58.52066 | 402 ft | 106 kts | 344° |
| 2026-04-28 04:55 | -34.83963 | -58.52305 | 259 ft | 97 kts | 344° |
| 2026-04-28 04:55 | -34.83373 | -58.52510 | 90 ft | 78 kts | 343° |
| 2026-04-28 04:55 | -34.82909 | -58.52674 | 67 ft | 58 kts | 343° |
| 2026-04-28 04:56 | -34.82563 | -58.52795 | 67 ft | 47 kts | 344° |
| 2026-04-28 04:56 | -34.82272 | -58.52895 | 67 ft | 42 kts | 343° |
| 2026-04-28 04:56 | -34.82027 | -58.53025 | 67 ft | 31 kts | 291° |
| 2026-04-28 04:56 | -34.81997 | -58.53202 | 67 ft | 18 kts | 283° |
| 2026-04-28 04:57 | -34.81963 | -58.53368 | 67 ft | 18 kts | 283° |
| 2026-04-28 04:57 | -34.81939 | -58.53498 | 67 ft | 14 kts | 282° |
| 2026-04-28 04:57 | -34.81906 | -58.53605 | 67 ft | 14 kts | 306° |
| 2026-04-28 04:57 | -34.81810 | -58.53682 | 67 ft | 17 kts | 335° |
| 2026-04-28 04:58 | -34.81713 | -58.53739 | 67 ft | 14 kts | 329° |
| 2026-04-28 04:58 | -34.81636 | -58.53757 | 67 ft | 8 kts | 28° |
| 2026-04-28 04:58 | -34.81568 | -58.53685 | 67 ft | 15 kts | 39° |
| 2026-04-28 04:58 | -34.81498 | -58.53650 | 67 ft | 4 kts | 321° |
| 2026-04-28 04:59 | -34.81477 | -58.53696 | 67 ft | 6 kts | 295° |
| 2026-04-28 04:59 | -34.81462 | -58.53731 | 67 ft | 10 kts | 308° |
| 2026-04-28 04:59 | -34.81400 | -58.53746 | 67 ft | 9 kts | 45° |
| 2026-04-28 04:59 | -34.81405 | -58.53687 | 67 ft | 6 kts | 153° |
| 2026-04-28 05:00 | -34.81479 | -58.53696 | 67 ft | 21 kts | 193° |
| 2026-04-28 05:00 | -34.81634 | -58.53771 | 67 ft | 25 kts | 206° |
| 2026-04-28 05:00 | -34.81745 | -58.53913 | 67 ft | 20 kts | 242° |
| 2026-04-28 05:00 | -34.81800 | -58.54040 | 67 ft | 14 kts | 255° |
| 2026-04-28 05:01 | -34.81797 | -58.54130 | 67 ft | 5 kts | 287° |
| 2026-04-28 05:01 | -34.81786 | -58.54152 | 67 ft | 0 kts | 359° |
| 2026-04-28 05:01 | -34.81751 | -58.54142 | 67 ft | 9 kts | 5° |
| 2026-04-28 05:01 | -34.81710 | -58.54129 | 67 ft | 4 kts | 14° |
| 2026-04-28 05:02 | -34.81699 | -58.54125 | 67 ft | 5 kts | 19° |
| 2026-04-28 05:02 | -34.81685 | -58.54118 | 67 ft | 0 kts | 22° |